Bucklin, KS (67834)

2:16 AM CDT on August 23, 2014 (GMT -0500)
Southern Ford County | Change Station
CLOSE
Current Station
Personal Weather Station
Location: Bloom, KS
Elevation: 2591 ft
Nearby Weather Stations

Elev 2591 ft 37.49 °N, 99.96 °W | Updated 2 minutes ago

Light Rain
Light Rain
75.3 °F
Feels Like 77 °F
N
10.0
Wind Variable Wind from WSW

Today
High -- | Low -- °F
--% Chance of Precip.
Yesterday
High -- | Low -- °F
Precip. -- in
7:01 AM 8:20 PM
Waning Crescent, 5% visible
Pressure 29.83 in
Visibility 10.0 miles
Clouds Few 5500 ft
Scattered Clouds 7000 ft
Mostly Cloudy 10000 ft
Heat Index 77 °F
Dew Point 64 °F
Humidity 67%
Rainfall 0.00 in
Snow Depth Not available.
UV 0 out of 12
Pollen 10.70 out of 12
Air Quality Not available.
Flu Activity Not available.
METAR KDDC 230652Z AUTO 23007KT 10SM -RA FEW055 SCT070 BKN100 23/18 A2994 RMK AO2 LTG DSNT N AND NW RAB0556E08B29 SLP102 P0002 T02280178

More Conditions Fewer Conditions

Pressure 29.83 in
Visibility 10.0 miles
Clouds Few 5500 ft
Scattered Clouds 7000 ft
Mostly Cloudy 10000 ft
Heat Index 77 °F
Dew Point 64 °F
Humidity 67%
Rainfall 0.00 in
Snow Depth Not available.
UV 0 out of 12
Pollen 10.70 out of 12
Air Quality Not available.
Flu Activity Not available.
METAR KDDC 230652Z AUTO 23007KT 10SM -RA FEW055 SCT070 BKN100 23/18 A2994 RMK AO2 LTG DSNT N AND NW RAB0556E08B29 SLP102 P0002 T02280178

More Conditions Fewer Conditions

10-Day Weather Forecast

Almanac

Astronomy

Aug. 23, 2014 Rise Set
Actual Time 7:01 AM CDT 8:20 PM CDT
Civil Twilight 6:33 AM CDT 8:47 PM CDT
Nautical Twilight 6:01 AM CDT 9:20 PM CDT
Astronomical Twilight 5:27 AM CDT 9:54 PM CDT
Moon 5:19 AM CDT 7:05 PM CDT
Length of Visible Light 14h 13m
Length of Day
13h 19m
Tomorrow will be 2m 14s shorter.
Waning Crescent, 5% of the Moon is Illuminated
Today
Waning Crescent
Aug 25
New
Sep 2
First Quarter
Sep 8
Full
Sep 15
Last Quarter

Today's Extremes

State Highs State Lows

Community

WunderPhotos

Upload Photos

1,746,377 photos uploaded!

WunderBlogs® & News

By Dr. Jeff Masters
Director of Meteorology, Weather Underground
By Kari Strenfel
Meteorologist, Weather Underground
By Christopher C. Burt
Weather Historian, Weather Underground
August 23, 2014
August 23, 2014
August 22, 2014

Nearby

Snow Depth

Station Depth Elevation
No new snow has been reported.

Earthquake Activity

City Distance Mag. Time & Date
Waukomis, Oklahoma 137 miles 2.6 9:40 AM CDT
2014-08-18
Cherokee, Oklahoma 90 miles 3.8 8:25 PM CDT
2014-08-17
Medford, Oklahoma 108 miles 2.9 6:30 PM CDT
2014-08-17
Cherokee, Oklahoma 90 miles 2.6 11:50 AM CDT
2014-08-17
Minimum magnitude displayed is 2.5.

Coastal Water Temperatures

Place Temperature
No Stations Reporting

Nearby Weather Stations